sensor_id;sensor_type;location;lat;lon;timestamp;pressure;altitude;pressure_sealevel;temperature;humidity
70217;BME280;65567;55.684;37.570;2023-04-06T00:00:03;99848.56;;;7.77;57.12
70217;BME280;65567;55.684;37.570;2023-04-06T00:02:30;99849.78;;;7.66;57.32
70217;BME280;65567;55.684;37.570;2023-04-06T00:04:56;99848.06;;;7.65;57.21
70217;BME280;65567;55.684;37.570;2023-04-06T00:07:22;99841.88;;;7.39;58.25
70217;BME280;65567;55.684;37.570;2023-04-06T00:09:48;99842.16;;;7.89;56.76
70217;BME280;65567;55.684;37.570;2023-04-06T00:12:14;99851.31;;;7.73;57.16
70217;BME280;65567;55.684;37.570;2023-04-06T00:14:39;99846.56;;;7.57;57.29
70217;BME280;65567;55.684;37.570;2023-04-06T00:17:05;99853.28;;;7.65;57.32
70217;BME280;65567;55.684;37.570;2023-04-06T00:19:31;99847.91;;;7.71;57.20
70217;BME280;65567;55.684;37.570;2023-04-06T00:21:57;99851.50;;;7.67;57.26
70217;BME280;65567;55.684;37.570;2023-04-06T00:24:23;99847.41;;;7.58;57.51
70217;BME280;65567;55.684;37.570;2023-04-06T00:26:49;99853.38;;;7.61;57.59
70217;BME280;65567;55.684;37.570;2023-04-06T00:29:15;99850.00;;;7.89;56.46
70217;BME280;65567;55.684;37.570;2023-04-06T00:31:41;99851.41;;;7.70;57.33
70217;BME280;65567;55.684;37.570;2023-04-06T00:34:07;99853.66;;;7.82;57.05
70217;BME280;65567;55.684;37.570;2023-04-06T00:36:33;99851.91;;;7.83;56.92
70217;BME280;65567;55.684;37.570;2023-04-06T00:38:59;99849.06;;;7.90;56.70
70217;BME280;65567;55.684;37.570;2023-04-06T00:41:25;99848.56;;;7.77;57.12
70217;BME280;65567;55.684;37.570;2023-04-06T00:43:51;99854.25;;;7.92;56.51
70217;BME280;65567;55.684;37.570;2023-04-06T00:46:16;99851.75;;;7.57;57.48
70217;BME280;65567;55.684;37.570;2023-04-06T00:48:42;99852.09;;;7.76;57.09
70217;BME280;65567;55.684;37.570;2023-04-06T00:51:08;99842.41;;;7.80;56.72
70217;BME280;65567;55.684;37.570;2023-04-06T00:53:34;99849.38;;;7.80;56.88
70217;BME280;65567;55.684;37.570;2023-04-06T00:56:00;99847.44;;;7.56;57.39
70217;BME280;65567;55.684;37.570;2023-04-06T00:58:26;99840.72;;;7.48;57.72
70217;BME280;65567;55.684;37.570;2023-04-06T01:00:51;99849.22;;;7.56;57.54
70217;BME280;65567;55.684;37.570;2023-04-06T01:03:17;99839.31;;;7.67;57.11
70217;BME280;65567;55.684;37.570;2023-04-06T01:05:43;99839.84;;;7.49;57.92
70217;BME280;65567;55.684;37.570;2023-04-06T01:08:09;99841.19;;;7.32;58.24
70217;BME280;65567;55.684;37.570;2023-04-06T01:10:35;99837.13;;;7.22;58.31
70217;BME280;65567;55.684;37.570;2023-04-06T01:13:01;99833.56;;;7.24;58.27
70217;BME280;65567;55.684;37.570;2023-04-06T01:15:28;99839.41;;;7.33;58.43
70217;BME280;65567;55.684;37.570;2023-04-06T01:17:55;99837.31;;;7.14;59.20
70217;BME280;65567;55.684;37.570;2023-04-06T01:20:20;99840.94;;;7.40;58.15
70217;BME280;65567;55.684;37.570;2023-04-06T01:22:46;99841.63;;;7.15;58.70
70217;BME280;65567;55.684;37.570;2023-04-06T01:25:12;99835.88;;;7.35;58.29
70217;BME280;65567;55.684;37.570;2023-04-06T01:27:38;99842.44;;;7.17;58.64
70217;BME280;65567;55.684;37.570;2023-04-06T01:30:05;99830.66;;;7.35;58.36
70217;BME280;65567;55.684;37.570;2023-04-06T01:32:31;99837.38;;;7.44;57.94
70217;BME280;65567;55.684;37.570;2023-04-06T01:34:57;99830.56;;;7.38;58.37
70217;BME280;65567;55.684;37.570;2023-04-06T01:37:23;99842.13;;;7.30;58.61
70217;BME280;65567;55.684;37.570;2023-04-06T01:39:48;99840.13;;;7.06;59.29
70217;BME280;65567;55.684;37.570;2023-04-06T01:42:14;99838.78;;;7.24;58.44
70217;BME280;65567;55.684;37.570;2023-04-06T01:44:40;99839.25;;;7.06;59.13
70217;BME280;65567;55.684;37.570;2023-04-06T01:47:06;99835.75;;;7.07;59.36
70217;BME280;65567;55.684;37.570;2023-04-06T01:49:32;99842.06;;;6.98;59.39
70217;BME280;65567;55.684;37.570;2023-04-06T01:51:58;99835.91;;;7.01;59.35
70217;BME280;65567;55.684;37.570;2023-04-06T01:54:24;99835.16;;;6.97;59.37
70217;BME280;65567;55.684;37.570;2023-04-06T01:56:50;99840.28;;;7.00;59.37
70217;BME280;65567;55.684;37.570;2023-04-06T01:59:17;99837.78;;;6.95;59.50
70217;BME280;65567;55.684;37.570;2023-04-06T02:01:43;99835.47;;;6.85;59.94
70217;BME280;65567;55.684;37.570;2023-04-06T02:04:09;99837.56;;;6.70;60.25
70217;BME280;65567;55.684;37.570;2023-04-06T02:06:35;99838.88;;;6.52;60.88
70217;BME280;65567;55.684;37.570;2023-04-06T02:09:01;99846.22;;;6.72;60.36
70217;BME280;65567;55.684;37.570;2023-04-06T02:11:27;99845.97;;;6.82;59.96
70217;BME280;65567;55.684;37.570;2023-04-06T02:13:53;99850.41;;;6.78;60.20
70217;BME280;65567;55.684;37.570;2023-04-06T02:16:19;99844.44;;;6.73;59.96
70217;BME280;65567;55.684;37.570;2023-04-06T02:18:44;99849.63;;;6.74;60.22
70217;BME280;65567;55.684;37.570;2023-04-06T02:21:10;99846.94;;;6.77;59.76
70217;BME280;65567;55.684;37.570;2023-04-06T02:23:37;99852.25;;;6.73;60.21
70217;BME280;65567;55.684;37.570;2023-04-06T02:26:03;99850.69;;;6.67;60.00
70217;BME280;65567;55.684;37.570;2023-04-06T02:28:29;99853.34;;;6.64;60.19
70217;BME280;65567;55.684;37.570;2023-04-06T02:30:55;99849.25;;;6.54;60.64
70217;BME280;65567;55.684;37.570;2023-04-06T02:33:21;99853.66;;;6.52;60.44
70217;BME280;65567;55.684;37.570;2023-04-06T02:35:47;99858.06;;;6.48;60.72
70217;BME280;65567;55.684;37.570;2023-04-06T02:38:12;99852.50;;;6.64;60.32
70217;BME280;65567;55.684;37.570;2023-04-06T02:40:38;99865.38;;;6.70;60.08
70217;BME280;65567;55.684;37.570;2023-04-06T02:43:04;99862.72;;;6.71;59.56
70217;BME280;65567;55.684;37.570;2023-04-06T02:45:30;99867.75;;;6.79;59.42
70217;BME280;65567;55.684;37.570;2023-04-06T02:47:56;99872.03;;;6.80;59.50
70217;BME280;65567;55.684;37.570;2023-04-06T02:50:22;99872.69;;;6.54;60.16
70217;BME280;65567;55.684;37.570;2023-04-06T02:52:48;99872.44;;;6.63;60.22
70217;BME280;65567;55.684;37.570;2023-04-06T02:55:14;99868.78;;;6.72;59.61
70217;BME280;65567;55.684;37.570;2023-04-06T02:57:39;99873.97;;;6.72;59.56
70217;BME280;65567;55.684;37.570;2023-04-06T03:00:06;99879.19;;;6.72;59.58
70217;BME280;65567;55.684;37.570;2023-04-06T03:02:32;99870.09;;;6.88;59.05
70217;BME280;65567;55.684;37.570;2023-04-06T03:04:58;99885.78;;;6.85;58.95
70217;BME280;65567;55.684;37.570;2023-04-06T03:07:24;99885.78;;;6.85;59.05
70217;BME280;65567;55.684;37.570;2023-04-06T03:09:50;99882.44;;;6.82;59.09
70217;BME280;65567;55.684;37.570;2023-04-06T03:12:16;99891.97;;;6.81;58.84
70217;BME280;65567;55.684;37.570;2023-04-06T03:14:42;99885.28;;;6.71;58.99
70217;BME280;65567;55.684;37.570;2023-04-06T03:17:07;99883.28;;;6.82;58.93
70217;BME280;65567;55.684;37.570;2023-04-06T03:19:33;99882.47;;;7.15;58.16
70217;BME280;65567;55.684;37.570;2023-04-06T03:21:59;99881.94;;;7.66;57.05
70217;BME280;65567;55.684;37.570;2023-04-06T03:24:25;99884.13;;;7.80;56.21
70217;BME280;65567;55.684;37.570;2023-04-06T03:26:51;99884.84;;;8.15;55.32
70217;BME280;65567;55.684;37.570;2023-04-06T03:29:17;99883.41;;;8.05;54.71
70217;BME280;65567;55.684;37.570;2023-04-06T03:31:42;99891.00;;;7.84;55.32
70217;BME280;65567;55.684;37.570;2023-04-06T03:34:08;99891.00;;;7.84;55.34
70217;BME280;65567;55.684;37.570;2023-04-06T03:36:35;99896.66;;;7.99;55.14
70217;BME280;65567;55.684;37.570;2023-04-06T03:39:01;99894.94;;;7.98;54.59
70217;BME280;65567;55.684;37.570;2023-04-06T03:41:29;99903.66;;;8.26;54.27
70217;BME280;65567;55.684;37.570;2023-04-06T03:43:55;99898.22;;;8.89;52.93
70217;BME280;65567;55.684;37.570;2023-04-06T03:46:21;99906.31;;;8.82;52.51
70217;BME280;65567;55.684;37.570;2023-04-06T03:48:48;99899.84;;;8.93;52.02
70217;BME280;65567;55.684;37.570;2023-04-06T03:51:14;99907.69;;;9.19;51.66
70217;BME280;65567;55.684;37.570;2023-04-06T03:53:40;99909.00;;;9.57;50.73
70217;BME280;65567;55.684;37.570;2023-04-06T03:56:06;99915.59;;;9.91;49.93
70217;BME280;65567;55.684;37.570;2023-04-06T03:58:32;99905.75;;;9.98;49.00
70217;BME280;65567;55.684;37.570;2023-04-06T04:00:58;99906.41;;;10.27;48.72
70217;BME280;65567;55.684;37.570;2023-04-06T04:03:24;99910.69;;;10.96;47.26
70217;BME280;65567;55.684;37.570;2023-04-06T04:05:52;99910.03;;;11.12;46.16
70217;BME280;65567;55.684;37.570;2023-04-06T04:08:18;99910.13;;;11.31;46.18
70217;BME280;65567;55.684;37.570;2023-04-06T04:10:44;99919.16;;;11.44;44.83
70217;BME280;65567;55.684;37.570;2023-04-06T04:13:10;99923.22;;;11.51;45.44
70217;BME280;65567;55.684;37.570;2023-04-06T04:15:36;99912.50;;;11.77;44.40
70217;BME280;65567;55.684;37.570;2023-04-06T04:18:01;99914.06;;;12.20;43.38
70217;BME280;65567;55.684;37.570;2023-04-06T04:20:27;99913.69;;;12.47;42.91
70217;BME280;65567;55.684;37.570;2023-04-06T04:22:54;99913.75;;;12.82;42.30
70217;BME280;65567;55.684;37.570;2023-04-06T04:25:19;99918.41;;;13.30;41.13
70217;BME280;65567;55.684;37.570;2023-04-06T04:27:45;99911.75;;;13.22;40.55
70217;BME280;65567;55.684;37.570;2023-04-06T04:30:11;99917.31;;;13.34;40.95
70217;BME280;65567;55.684;37.570;2023-04-06T04:32:37;99917.97;;;13.39;40.35
70217;BME280;65567;55.684;37.570;2023-04-06T04:35:03;99920.09;;;12.96;40.96
70217;BME280;65567;55.684;37.570;2023-04-06T04:37:29;99914.31;;;12.89;41.04
70217;BME280;65567;55.684;37.570;2023-04-06T04:39:55;99921.31;;;12.71;41.06
70217;BME280;65567;55.684;37.570;2023-04-06T04:42:21;99923.78;;;12.74;41.57
70217;BME280;65567;55.684;37.570;2023-04-06T04:44:47;99925.69;;;13.25;40.48
70217;BME280;65567;55.684;37.570;2023-04-06T04:47:16;99915.44;;;13.71;39.77
70217;BME280;65567;55.684;37.570;2023-04-06T04:49:42;99923.47;;;13.85;39.28
70217;BME280;65567;55.684;37.570;2023-04-06T04:52:07;99921.47;;;13.73;39.08
70217;BME280;65567;55.684;37.570;2023-04-06T04:54:33;99921.94;;;13.64;39.59
70217;BME280;65567;55.684;37.570;2023-04-06T04:56:59;99917.97;;;14.06;39.19
70217;BME280;65567;55.684;37.570;2023-04-06T04:59:28;99924.34;;;14.02;38.48
70217;BME280;65567;55.684;37.570;2023-04-06T05:01:55;99925.19;;;13.69;39.46
70217;BME280;65567;55.684;37.570;2023-04-06T05:04:22;99914.97;;;13.96;38.80
70217;BME280;65567;55.684;37.570;2023-04-06T05:06:48;99917.97;;;14.22;38.29
70217;BME280;65567;55.684;37.570;2023-04-06T05:09:14;99916.19;;;14.23;37.99
70217;BME280;65567;55.684;37.570;2023-04-06T05:11:40;99926.53;;;14.10;38.01
70217;BME280;65567;55.684;37.570;2023-04-06T05:14:06;99926.66;;;14.24;37.95
70217;BME280;65567;55.684;37.570;2023-04-06T05:16:33;99919.50;;;14.42;37.81
70217;BME280;65567;55.684;37.570;2023-04-06T05:18:59;99917.41;;;15.11;36.59
70217;BME280;65567;55.684;37.570;2023-04-06T05:21:25;99921.56;;;15.30;36.09
70217;BME280;65567;55.684;37.570;2023-04-06T05:23:53;99918.56;;;15.22;36.13
70217;BME280;65567;55.684;37.570;2023-04-06T05:26:19;99919.00;;;15.14;36.25
70217;BME280;65567;55.684;37.570;2023-04-06T05:28:45;99920.47;;;15.03;36.18
70217;BME280;65567;55.684;37.570;2023-04-06T05:31:11;99917.78;;;15.19;36.21
70217;BME280;65567;55.684;37.570;2023-04-06T05:33:37;99923.69;;;15.53;35.66
70217;BME280;65567;55.684;37.570;2023-04-06T05:36:03;99923.41;;;15.44;35.30
70217;BME280;65567;55.684;37.570;2023-04-06T05:38:31;99913.31;;;15.06;35.96
70217;BME280;65567;55.684;37.570;2023-04-06T05:40:58;99925.44;;;14.94;36.27
70217;BME280;65567;55.684;37.570;2023-04-06T05:43:24;99911.50;;;14.92;36.49
70217;BME280;65567;55.684;37.570;2023-04-06T05:45:50;99928.41;;;15.63;35.78
70217;BME280;65567;55.684;37.570;2023-04-06T05:48:16;99911.63;;;16.07;34.52
70217;BME280;65567;55.684;37.570;2023-04-06T05:50:42;99919.66;;;16.06;34.55
70217;BME280;65567;55.684;37.570;2023-04-06T05:53:08;99920.25;;;15.96;34.21
70217;BME280;65567;55.684;37.570;2023-04-06T05:55:34;99917.69;;;16.09;34.57
70217;BME280;65567;55.684;37.570;2023-04-06T05:58:00;99921.59;;;16.45;33.83
70217;BME280;65567;55.684;37.570;2023-04-06T06:00:25;99929.00;;;16.26;33.90
70217;BME280;65567;55.684;37.570;2023-04-06T06:02:51;99912.09;;;16.28;33.57
70217;BME280;65567;55.684;37.570;2023-04-06T06:05:17;99920.66;;;16.32;33.74
70217;BME280;65567;55.684;37.570;2023-04-06T06:07:43;99917.47;;;16.12;34.17
70217;BME280;65567;55.684;37.570;2023-04-06T06:10:09;99922.72;;;16.41;33.87
70217;BME280;65567;55.684;37.570;2023-04-06T06:12:35;99920.66;;;16.32;33.74
70217;BME280;65567;55.684;37.570;2023-04-06T06:15:01;99914.88;;;16.67;33.32
70217;BME280;65567;55.684;37.570;2023-04-06T06:17:27;99919.69;;;17.02;32.67
70217;BME280;65567;55.684;37.570;2023-04-06T06:19:54;99916.34;;;16.31;33.56
70217;BME280;65567;55.684;37.570;2023-04-06T06:22:20;99911.31;;;16.26;34.05
70217;BME280;65567;55.684;37.570;2023-04-06T06:24:46;99904.78;;;16.87;33.39
70217;BME280;65567;55.684;37.570;2023-04-06T06:27:12;99911.59;;;17.57;32.21
70217;BME280;65567;55.684;37.570;2023-04-06T06:29:38;99914.38;;;17.02;32.24
70217;BME280;65567;55.684;37.570;2023-04-06T06:32:04;99908.22;;;16.61;33.25
70217;BME280;65567;55.684;37.570;2023-04-06T06:34:30;99908.38;;;17.00;32.84
70217;BME280;65567;55.684;37.570;2023-04-06T06:36:56;99912.56;;;17.56;31.91
70217;BME280;65567;55.684;37.570;2023-04-06T06:39:22;99912.53;;;16.90;32.40
70217;BME280;65567;55.684;37.570;2023-04-06T06:41:48;99909.47;;;16.83;32.47
70217;BME280;65567;55.684;37.570;2023-04-06T06:44:13;99910.84;;;16.89;32.96
70217;BME280;65567;55.684;37.570;2023-04-06T06:46:39;99909.75;;;16.78;32.70
70217;BME280;65567;55.684;37.570;2023-04-06T06:49:05;99904.47;;;17.18;32.39
70217;BME280;65567;55.684;37.570;2023-04-06T06:51:31;99904.69;;;18.06;31.39
70217;BME280;65567;55.684;37.570;2023-04-06T06:53:57;99892.34;;;18.17;30.85
70217;BME280;65567;55.684;37.570;2023-04-06T06:56:23;99904.47;;;18.09;30.47
70217;BME280;65567;55.684;37.570;2023-04-06T06:58:49;99902.97;;;17.92;30.96
70217;BME280;65567;55.684;37.570;2023-04-06T07:01:15;99912.22;;;18.36;31.08
70217;BME280;65567;55.684;37.570;2023-04-06T07:03:41;99910.25;;;18.64;29.92
70217;BME280;65567;55.684;37.570;2023-04-06T07:06:07;99910.53;;;18.48;30.26
70217;BME280;65567;55.684;37.570;2023-04-06T07:08:32;99902.53;;;18.72;30.01
70217;BME280;65567;55.684;37.570;2023-04-06T07:10:58;99901.38;;;19.01;29.52
70217;BME280;65567;55.684;37.570;2023-04-06T07:13:24;99895.75;;;19.28;29.41
70217;BME280;65567;55.684;37.570;2023-04-06T07:15:52;99914.56;;;19.83;28.77
70217;BME280;65567;55.684;37.570;2023-04-06T07:18:19;99902.78;;;19.40;28.75
70217;BME280;65567;55.684;37.570;2023-04-06T07:20:45;99906.50;;;19.26;29.15
70217;BME280;65567;55.684;37.570;2023-04-06T07:23:11;99908.84;;;19.76;28.53
70217;BME280;65567;55.684;37.570;2023-04-06T07:25:37;99910.53;;;19.43;28.65
70217;BME280;65567;55.684;37.570;2023-04-06T07:28:04;99910.16;;;19.48;28.78
70217;BME280;65567;55.684;37.570;2023-04-06T07:30:30;99901.41;;;20.04;28.27
70217;BME280;65567;55.684;37.570;2023-04-06T07:32:56;99900.41;;;20.17;28.09
70217;BME280;65567;55.684;37.570;2023-04-06T07:35:27;99910.28;;;21.13;27.33
70217;BME280;65567;55.684;37.570;2023-04-06T07:37:53;99912.41;;;21.20;26.49
70217;BME280;65567;55.684;37.570;2023-04-06T07:40:20;99906.78;;;21.34;26.72
70217;BME280;65567;55.684;37.570;2023-04-06T07:42:46;99901.16;;;20.95;26.52
70217;BME280;65567;55.684;37.570;2023-04-06T07:45:12;99893.53;;;20.58;26.81
70217;BME280;65567;55.684;37.570;2023-04-06T07:47:38;99900.81;;;20.01;27.61
70217;BME280;65567;55.684;37.570;2023-04-06T07:50:04;99900.38;;;20.39;27.70
70217;BME280;65567;55.684;37.570;2023-04-06T07:52:30;99908.50;;;20.26;27.14
70217;BME280;65567;55.684;37.570;2023-04-06T07:54:58;99901.00;;;19.75;27.78
70217;BME280;65567;55.684;37.570;2023-04-06T07:57:27;99902.94;;;19.61;28.09
70217;BME280;65567;55.684;37.570;2023-04-06T07:59:53;99909.59;;;19.78;27.84
70217;BME280;65567;55.684;37.570;2023-04-06T08:02:19;99903.59;;;19.88;27.81
70217;BME280;65567;55.684;37.570;2023-04-06T08:04:45;99894.03;;;20.52;27.04
70217;BME280;65567;55.684;37.570;2023-04-06T08:07:11;99904.50;;;20.32;26.92
70217;BME280;65567;55.684;37.570;2023-04-06T08:09:37;99904.75;;;19.72;27.92
70217;BME280;65567;55.684;37.570;2023-04-06T08:12:03;99905.38;;;20.10;27.49
70217;BME280;65567;55.684;37.570;2023-04-06T08:14:29;99902.69;;;20.65;26.86
70217;BME280;65567;55.684;37.570;2023-04-06T08:16:55;99898.75;;;20.92;26.66
70217;BME280;65567;55.684;37.570;2023-04-06T08:19:21;99893.88;;;20.64;26.45
70217;BME280;65567;55.684;37.570;2023-04-06T08:21:47;99903.22;;;20.59;26.91
70217;BME280;65567;55.684;37.570;2023-04-06T08:24:13;99896.56;;;21.18;26.06
70217;BME280;65567;55.684;37.570;2023-04-06T08:26:40;99911.06;;;21.25;25.78
70217;BME280;65567;55.684;37.570;2023-04-06T08:29:06;99915.19;;;20.09;26.77
70217;BME280;65567;55.684;37.570;2023-04-06T08:31:35;99914.69;;;19.93;27.04
70217;BME280;65567;55.684;37.570;2023-04-06T08:34:03;99904.69;;;20.52;26.66
70217;BME280;65567;55.684;37.570;2023-04-06T08:36:30;99893.09;;;20.41;26.68
70217;BME280;65567;55.684;37.570;2023-04-06T08:38:56;99901.13;;;20.62;26.39
70217;BME280;65567;55.684;37.570;2023-04-06T08:41:22;99918.78;;;19.74;26.92
70217;BME280;65567;55.684;37.570;2023-04-06T08:44:01;99905.19;;;19.32;27.70
70217;BME280;65567;55.684;37.570;2023-04-06T08:46:31;99897.78;;;19.83;27.19
70217;BME280;65567;55.684;37.570;2023-04-06T08:49:01;99892.94;;;19.99;26.96
70217;BME280;65567;55.684;37.570;2023-04-06T08:51:29;99891.25;;;20.09;26.65
70217;BME280;65567;55.684;37.570;2023-04-06T08:53:57;99889.97;;;20.36;26.65
70217;BME280;65567;55.684;37.570;2023-04-06T08:56:24;99893.63;;;20.68;26.46
70217;BME280;65567;55.684;37.570;2023-04-06T08:58:52;99898.47;;;20.19;26.64
70217;BME280;65567;55.684;37.570;2023-04-06T09:01:21;99893.19;;;19.96;26.96
70217;BME280;65567;55.684;37.570;2023-04-06T09:03:49;99893.03;;;20.20;26.67
70217;BME280;65567;55.684;37.570;2023-04-06T09:06:16;99887.38;;;20.90;25.97
70217;BME280;65567;55.684;37.570;2023-04-06T09:08:42;99880.56;;;21.18;25.64
70217;BME280;65567;55.684;37.570;2023-04-06T09:11:08;99886.41;;;22.26;24.74
70217;BME280;65567;55.684;37.570;2023-04-06T09:13:52;99882.81;;;23.05;23.24
70217;BME280;65567;55.684;37.570;2023-04-06T09:16:19;99891.28;;;23.01;23.38
70217;BME280;65567;55.684;37.570;2023-04-06T09:18:45;99879.16;;;22.57;23.76
70217;BME280;65567;55.684;37.570;2023-04-06T09:21:12;99878.81;;;22.31;23.62
70217;BME280;65567;55.684;37.570;2023-04-06T09:23:38;99880.00;;;22.87;23.89
70217;BME280;65567;55.684;37.570;2023-04-06T09:26:06;99888.44;;;23.02;23.07
70217;BME280;65567;55.684;37.570;2023-04-06T09:28:45;99876.66;;;22.85;23.70
70217;BME280;65567;55.684;37.570;2023-04-06T09:31:13;99874.25;;;22.72;23.24
70217;BME280;65567;55.684;37.570;2023-04-06T09:33:45;99884.78;;;21.94;23.60
70217;BME280;65567;55.684;37.570;2023-04-06T09:36:12;99886.50;;;21.22;24.79
70217;BME280;65567;55.684;37.570;2023-04-06T09:38:54;99876.22;;;20.63;25.46
70217;BME280;65567;55.684;37.570;2023-04-06T09:41:24;99896.69;;;19.85;25.87
70217;BME280;65567;55.684;37.570;2023-04-06T09:43:52;99878.78;;;19.64;26.28
70217;BME280;65567;55.684;37.570;2023-04-06T09:46:27;99894.75;;;20.10;26.04
70217;BME280;65567;55.684;37.570;2023-04-06T09:48:56;99881.03;;;20.37;25.88
70217;BME280;65567;55.684;37.570;2023-04-06T09:51:23;99889.47;;;20.42;25.68
70217;BME280;65567;55.684;37.570;2023-04-06T09:53:54;99876.63;;;20.47;25.39
70217;BME280;65567;55.684;37.570;2023-04-06T09:56:28;99877.94;;;20.53;25.60
70217;BME280;65567;55.684;37.570;2023-04-06T09:59:02;99870.06;;;21.17;25.04
70217;BME280;65567;55.684;37.570;2023-04-06T10:01:30;99860.97;;;21.71;24.30
70217;BME280;65567;55.684;37.570;2023-04-06T10:04:18;99864.31;;;21.42;24.33
70217;BME280;65567;55.684;37.570;2023-04-06T10:06:47;99867.28;;;20.53;25.11
70217;BME280;65567;55.684;37.570;2023-04-06T10:09:18;99867.25;;;20.32;25.38
70217;BME280;65567;55.684;37.570;2023-04-06T10:11:47;99859.81;;;20.14;25.49
70217;BME280;65567;55.684;37.570;2023-04-06T10:14:15;99854.69;;;20.34;25.62
70217;BME280;65567;55.684;37.570;2023-04-06T10:16:42;99859.41;;;20.63;25.08
70217;BME280;65567;55.684;37.570;2023-04-06T10:19:20;99866.19;;;20.56;25.29
70217;BME280;65567;55.684;37.570;2023-04-06T10:21:51;99863.19;;;20.93;24.79
70217;BME280;65567;55.684;37.570;2023-04-06T10:24:20;99877.66;;;21.00;24.73
70217;BME280;65567;55.684;37.570;2023-04-06T10:27:01;99858.88;;;21.75;24.11
70217;BME280;65567;55.684;37.570;2023-04-06T10:29:27;99884.25;;;20.85;24.90
70217;BME280;65567;55.684;37.570;2023-04-06T10:31:53;99873.38;;;20.88;24.52
70217;BME280;65567;55.684;37.570;2023-04-06T10:34:20;99869.91;;;20.32;25.31
70217;BME280;65567;55.684;37.570;2023-04-06T10:36:46;99864.13;;;20.27;25.41
70217;BME280;65567;55.684;37.570;2023-04-06T10:39:12;99864.22;;;20.69;25.11
70217;BME280;65567;55.684;37.570;2023-04-06T10:41:43;99876.34;;;20.18;25.24
70217;BME280;65567;55.684;37.570;2023-04-06T10:44:23;99878.03;;;18.69;26.74
70217;BME280;65567;55.684;37.570;2023-04-06T10:46:55;99873.03;;;19.12;26.86
70217;BME280;65567;55.684;37.570;2023-04-06T10:49:21;99866.06;;;19.45;26.42
70217;BME280;65567;55.684;37.570;2023-04-06T10:51:55;99873.59;;;19.74;25.80
70217;BME280;65567;55.684;37.570;2023-04-06T10:54:21;99890.16;;;18.84;27.02
70217;BME280;65567;55.684;37.570;2023-04-06T10:56:49;99868.88;;;18.97;26.95
70217;BME280;65567;55.684;37.570;2023-04-06T10:59:24;99860.47;;;18.79;27.40
70217;BME280;65567;55.684;37.570;2023-04-06T11:01:50;99864.56;;;18.72;26.93
70217;BME280;65567;55.684;37.570;2023-04-06T11:04:17;99855.78;;;18.58;27.52
70217;BME280;65567;55.684;37.570;2023-04-06T11:06:48;99856.88;;;18.56;27.05
70217;BME280;65567;55.684;37.570;2023-04-06T11:09:27;99865.31;;;17.62;27.93
70217;BME280;65567;55.684;37.570;2023-04-06T11:11:54;99872.06;;;17.54;28.37
70217;BME280;65567;55.684;37.570;2023-04-06T11:14:21;99868.53;;;17.79;28.24
70217;BME280;65567;55.684;37.570;2023-04-06T11:16:48;99862.31;;;17.93;28.05
70217;BME280;65567;55.684;37.570;2023-04-06T11:19:16;99852.69;;;17.53;28.72
70217;BME280;65567;55.684;37.570;2023-04-06T11:21:47;99849.94;;;17.29;28.76
70217;BME280;65567;55.684;37.570;2023-04-06T11:24:19;99855.88;;;17.20;29.36
70217;BME280;65567;55.684;37.570;2023-04-06T11:26:50;99866.06;;;17.26;29.15
70217;BME280;65567;55.684;37.570;2023-04-06T11:29:27;99863.72;;;17.34;28.54
70217;BME280;65567;55.684;37.570;2023-04-06T11:31:57;99858.72;;;16.91;29.15
70217;BME280;65567;55.684;37.570;2023-04-06T11:34:24;99862.38;;;16.88;29.51
70217;BME280;65567;55.684;37.570;2023-04-06T11:37:01;99857.78;;;16.77;29.21
70217;BME280;65567;55.684;37.570;2023-04-06T11:39:28;99850.81;;;16.49;30.17
70217;BME280;65567;55.684;37.570;2023-04-06T11:42:00;99845.91;;;16.70;30.07
70217;BME280;65567;55.684;37.570;2023-04-06T11:44:42;99850.06;;;16.74;30.05
70217;BME280;65567;55.684;37.570;2023-04-06T11:47:11;99843.16;;;16.31;30.47
70217;BME280;65567;55.684;37.570;2023-04-06T11:49:39;99845.72;;;16.18;30.92
70217;BME280;65567;55.684;37.570;2023-04-06T11:52:20;99846.31;;;16.09;30.98
70217;BME280;65567;55.684;37.570;2023-04-06T11:54:48;99840.44;;;16.18;30.75
70217;BME280;65567;55.684;37.570;2023-04-06T11:57:16;99832.56;;;16.31;30.91
70217;BME280;65567;55.684;37.570;2023-04-06T11:59:45;99837.47;;;16.10;31.05
70217;BME280;65567;55.684;37.570;2023-04-06T12:02:11;99843.63;;;16.24;30.74
70217;BME280;65567;55.684;37.570;2023-04-06T12:04:37;99840.41;;;16.33;30.94
70217;BME280;65567;55.684;37.570;2023-04-06T12:07:03;99834.22;;;16.47;30.39
70217;BME280;65567;55.684;37.570;2023-04-06T12:09:29;99840.94;;;16.38;30.40
70217;BME280;65567;55.684;37.570;2023-04-06T12:11:57;99857.16;;;16.46;30.59
70217;BME280;65567;55.684;37.570;2023-04-06T12:14:23;99850.41;;;16.28;30.50
70217;BME280;65567;55.684;37.570;2023-04-06T12:16:49;99848.69;;;15.99;30.92
70217;BME280;65567;55.684;37.570;2023-04-06T12:19:18;99832.41;;;16.20;30.75
70217;BME280;65567;55.684;37.570;2023-04-06T12:21:44;99836.78;;;16.61;30.39
70217;BME280;65567;55.684;37.570;2023-04-06T12:24:10;99838.19;;;16.12;31.03
70217;BME280;65567;55.684;37.570;2023-04-06T12:26:36;99831.97;;;16.13;30.97
70217;BME280;65567;55.684;37.570;2023-04-06T12:29:02;99837.00;;;16.04;30.99
70217;BME280;65567;55.684;37.570;2023-04-06T12:31:38;99833.00;;;16.11;31.05
70217;BME280;65567;55.684;37.570;2023-04-06T12:34:06;99830.91;;;16.16;30.83
70217;BME280;65567;55.684;37.570;2023-04-06T12:36:33;99818.09;;;16.37;30.62
70217;BME280;65567;55.684;37.570;2023-04-06T12:38:59;99818.75;;;16.41;30.61
70217;BME280;65567;55.684;37.570;2023-04-06T12:41:28;99817.53;;;16.32;30.56
70217;BME280;65567;55.684;37.570;2023-04-06T12:43:55;99828.03;;;16.61;30.54
70217;BME280;65567;55.684;37.570;2023-04-06T12:46:21;99829.50;;;16.65;30.07
70217;BME280;65567;55.684;37.570;2023-04-06T12:48:53;99825.66;;;16.56;29.82
70217;BME280;65567;55.684;37.570;2023-04-06T12:51:20;99824.50;;;16.60;30.31